Francisco Morato, Brazil
Current Conditions -  °F | °C
As of 8:00 PM on Wednesday 28 Jan 2015 (Local Time) from SBMT Reporting Station
Thunderstorm Thunderstorm  
Wind Chill: 81°   Ceiling: 9000
Heat Index: 82°   Visibility: 6mi
Dew Point: 63°   Wind: 5mph
Humidity: 54%   Direction: 320°NW
Pressure: 29.97"   Gusts: NA
Location:  23.27°S, 46.75°W
Report Text: SBMT 282200Z 32004KT 9999 VCTS FEW040CB BKN090 27/17 Q1015
Loading
Personal Weather Stations






























Interactive Weather Map New forecast layout! Learn more

10-Day Weather Forecast

Advertisements
Track Severe Weather on mobile